sensor_id;sensor_type;location;lat;lon;timestamp;P1;durP1;ratioP1;P2;durP2;ratioP2
36629;SDS011;36256;42.154;23.002;2022-10-15T00:00:49;12.18;;;8.57;;
36629;SDS011;36256;42.154;23.002;2022-10-15T00:03:16;17.80;;;8.85;;
36629;SDS011;36256;42.154;23.002;2022-10-15T00:05:42;15.50;;;8.93;;
36629;SDS011;36256;42.154;23.002;2022-10-15T00:08:09;14.23;;;9.43;;
36629;SDS011;36256;42.154;23.002;2022-10-15T00:10:37;12.07;;;8.10;;
36629;SDS011;36256;42.154;23.002;2022-10-15T00:13:04;13.85;;;8.95;;
36629;SDS011;36256;42.154;23.002;2022-10-15T00:17:58;15.38;;;8.95;;
36629;SDS011;36256;42.154;23.002;2022-10-15T00:20:25;12.27;;;9.23;;
36629;SDS011;36256;42.154;23.002;2022-10-15T00:22:51;14.43;;;9.00;;
36629;SDS011;36256;42.154;23.002;2022-10-15T00:25:18;12.48;;;8.55;;
36629;SDS011;36256;42.154;23.002;2022-10-15T00:27:44;13.17;;;8.13;;
36629;SDS011;36256;42.154;23.002;2022-10-15T00:30:11;12.55;;;9.05;;
36629;SDS011;36256;42.154;23.002;2022-10-15T00:32:38;11.80;;;8.30;;
36629;SDS011;36256;42.154;23.002;2022-10-15T00:35:05;12.45;;;9.05;;
36629;SDS011;36256;42.154;23.002;2022-10-15T00:37:32;12.95;;;8.25;;
36629;SDS011;36256;42.154;23.002;2022-10-15T00:39:58;10.73;;;6.47;;
36629;SDS011;36256;42.154;23.002;2022-10-15T00:42:25;12.02;;;8.30;;
36629;SDS011;36256;42.154;23.002;2022-10-15T00:44:55;15.23;;;8.88;;
36629;SDS011;36256;42.154;23.002;2022-10-15T00:52:59;12.27;;;8.27;;
36629;SDS011;36256;42.154;23.002;2022-10-15T00:55:30;14.75;;;8.50;;
36629;SDS011;36256;42.154;23.002;2022-10-15T00:58:04;13.68;;;8.75;;
36629;SDS011;36256;42.154;23.002;2022-10-15T01:00:33;12.90;;;8.60;;
36629;SDS011;36256;42.154;23.002;2022-10-15T01:03:00;9.88;;;7.90;;
36629;SDS011;36256;42.154;23.002;2022-10-15T01:05:27;13.27;;;8.15;;
36629;SDS011;36256;42.154;23.002;2022-10-15T01:07:54;11.80;;;7.80;;
36629;SDS011;36256;42.154;23.002;2022-10-15T01:10:20;14.05;;;8.45;;
36629;SDS011;36256;42.154;23.002;2022-10-15T01:13:06;15.45;;;7.95;;
36629;SDS011;36256;42.154;23.002;2022-10-15T01:16:03;13.43;;;8.90;;
36629;SDS011;36256;42.154;23.002;2022-10-15T01:18:58;13.38;;;8.30;;
36629;SDS011;36256;42.154;23.002;2022-10-15T01:32:33;11.32;;;8.02;;
36629;SDS011;36256;42.154;23.002;2022-10-15T01:38:06;11.30;;;8.18;;
36629;SDS011;36256;42.154;23.002;2022-10-15T01:43:29;12.13;;;7.93;;
36629;SDS011;36256;42.154;23.002;2022-10-15T01:46:03;12.45;;;7.55;;
36629;SDS011;36256;42.154;23.002;2022-10-15T01:48:33;13.77;;;8.02;;
36629;SDS011;36256;42.154;23.002;2022-10-15T01:51:03;10.95;;;7.57;;
36629;SDS011;36256;42.154;23.002;2022-10-15T01:53:32;10.35;;;8.02;;
36629;SDS011;36256;42.154;23.002;2022-10-15T01:56:12;11.45;;;7.88;;
36629;SDS011;36256;42.154;23.002;2022-10-15T01:58:43;11.07;;;7.40;;
36629;SDS011;36256;42.154;23.002;2022-10-15T02:01:13;11.98;;;7.63;;
36629;SDS011;36256;42.154;23.002;2022-10-15T02:03:44;10.52;;;7.43;;
36629;SDS011;36256;42.154;23.002;2022-10-15T02:06:15;12.55;;;7.82;;
36629;SDS011;36256;42.154;23.002;2022-10-15T02:11:52;17.17;;;8.43;;
36629;SDS011;36256;42.154;23.002;2022-10-15T02:14:29;13.73;;;9.05;;
36629;SDS011;36256;42.154;23.002;2022-10-15T02:17:09;14.35;;;8.65;;
36629;SDS011;36256;42.154;23.002;2022-10-15T02:19:42;11.75;;;7.97;;
36629;SDS011;36256;42.154;23.002;2022-10-15T02:22:27;17.73;;;8.85;;
36629;SDS011;36256;42.154;23.002;2022-10-15T02:25:10;14.73;;;8.65;;
36629;SDS011;36256;42.154;23.002;2022-10-15T02:27:41;16.02;;;9.00;;
36629;SDS011;36256;42.154;23.002;2022-10-15T02:30:11;11.30;;;8.13;;
36629;SDS011;36256;42.154;23.002;2022-10-15T02:32:38;16.15;;;7.97;;
36629;SDS011;36256;42.154;23.002;2022-10-15T02:35:07;13.20;;;9.00;;
36629;SDS011;36256;42.154;23.002;2022-10-15T02:37:35;10.95;;;8.02;;
36629;SDS011;36256;42.154;23.002;2022-10-15T02:40:05;12.15;;;7.93;;
36629;SDS011;36256;42.154;23.002;2022-10-15T02:42:31;11.48;;;7.65;;
36629;SDS011;36256;42.154;23.002;2022-10-15T02:44:58;10.52;;;7.90;;
36629;SDS011;36256;42.154;23.002;2022-10-15T02:47:25;12.17;;;8.73;;
36629;SDS011;36256;42.154;23.002;2022-10-15T02:49:51;11.30;;;8.00;;
36629;SDS011;36256;42.154;23.002;2022-10-15T02:52:19;13.85;;;9.07;;
36629;SDS011;36256;42.154;23.002;2022-10-15T02:54:46;13.25;;;8.80;;
36629;SDS011;36256;42.154;23.002;2022-10-15T02:57:12;13.60;;;8.05;;
36629;SDS011;36256;42.154;23.002;2022-10-15T02:59:39;11.80;;;7.73;;
36629;SDS011;36256;42.154;23.002;2022-10-15T03:02:06;8.77;;;5.97;;
36629;SDS011;36256;42.154;23.002;2022-10-15T03:04:32;15.23;;;9.00;;
36629;SDS011;36256;42.154;23.002;2022-10-15T03:06:59;15.57;;;8.82;;
36629;SDS011;36256;42.154;23.002;2022-10-15T03:09:25;13.50;;;9.30;;
36629;SDS011;36256;42.154;23.002;2022-10-15T03:11:52;15.98;;;9.35;;
36629;SDS011;36256;42.154;23.002;2022-10-15T03:14:19;11.60;;;8.30;;
36629;SDS011;36256;42.154;23.002;2022-10-15T03:16:45;11.98;;;8.00;;
36629;SDS011;36256;42.154;23.002;2022-10-15T03:19:12;10.70;;;7.87;;
36629;SDS011;36256;42.154;23.002;2022-10-15T03:21:38;12.68;;;8.95;;
36629;SDS011;36256;42.154;23.002;2022-10-15T03:24:05;12.25;;;8.13;;
36629;SDS011;36256;42.154;23.002;2022-10-15T03:26:32;16.52;;;9.55;;
36629;SDS011;36256;42.154;23.002;2022-10-15T03:28:59;12.30;;;8.82;;
36629;SDS011;36256;42.154;23.002;2022-10-15T03:31:25;11.73;;;8.02;;
36629;SDS011;36256;42.154;23.002;2022-10-15T03:33:52;11.43;;;8.02;;
36629;SDS011;36256;42.154;23.002;2022-10-15T03:36:18;10.47;;;8.20;;
36629;SDS011;36256;42.154;23.002;2022-10-15T03:38:45;12.65;;;7.95;;
36629;SDS011;36256;42.154;23.002;2022-10-15T03:41:11;12.20;;;8.35;;
36629;SDS011;36256;42.154;23.002;2022-10-15T03:43:38;12.93;;;8.77;;
36629;SDS011;36256;42.154;23.002;2022-10-15T03:46:08;13.77;;;8.52;;
36629;SDS011;36256;42.154;23.002;2022-10-15T03:48:34;17.38;;;9.57;;
36629;SDS011;36256;42.154;23.002;2022-10-15T03:51:01;13.73;;;9.50;;
36629;SDS011;36256;42.154;23.002;2022-10-15T03:53:28;12.90;;;8.68;;
36629;SDS011;36256;42.154;23.002;2022-10-15T03:55:54;18.30;;;9.18;;
36629;SDS011;36256;42.154;23.002;2022-10-15T03:58:21;16.77;;;9.02;;
36629;SDS011;36256;42.154;23.002;2022-10-15T04:00:48;12.97;;;8.97;;
36629;SDS011;36256;42.154;23.002;2022-10-15T04:03:14;11.90;;;6.43;;
36629;SDS011;36256;42.154;23.002;2022-10-15T04:05:41;14.82;;;9.75;;
36629;SDS011;36256;42.154;23.002;2022-10-15T04:08:19;14.27;;;8.45;;
36629;SDS011;36256;42.154;23.002;2022-10-15T04:10:46;12.17;;;7.90;;
36629;SDS011;36256;42.154;23.002;2022-10-15T04:13:13;10.40;;;7.70;;
36629;SDS011;36256;42.154;23.002;2022-10-15T04:15:39;11.37;;;8.33;;
36629;SDS011;36256;42.154;23.002;2022-10-15T04:18:06;11.43;;;7.80;;
36629;SDS011;36256;42.154;23.002;2022-10-15T04:20:33;15.23;;;9.98;;
36629;SDS011;36256;42.154;23.002;2022-10-15T04:22:59;15.33;;;9.97;;
36629;SDS011;36256;42.154;23.002;2022-10-15T04:25:26;17.73;;;11.68;;
36629;SDS011;36256;42.154;23.002;2022-10-15T04:27:53;21.17;;;11.60;;
36629;SDS011;36256;42.154;23.002;2022-10-15T04:30:19;19.15;;;11.93;;
36629;SDS011;36256;42.154;23.002;2022-10-15T04:32:46;16.98;;;10.43;;
36629;SDS011;36256;42.154;23.002;2022-10-15T04:35:13;16.77;;;10.35;;
36629;SDS011;36256;42.154;23.002;2022-10-15T04:37:39;15.10;;;10.38;;
36629;SDS011;36256;42.154;23.002;2022-10-15T04:40:06;14.87;;;10.03;;
36629;SDS011;36256;42.154;23.002;2022-10-15T04:45:00;15.57;;;9.88;;
36629;SDS011;36256;42.154;23.002;2022-10-15T04:47:27;17.67;;;10.43;;
36629;SDS011;36256;42.154;23.002;2022-10-15T04:49:54;17.83;;;10.45;;
36629;SDS011;36256;42.154;23.002;2022-10-15T04:52:21;16.60;;;11.93;;
36629;SDS011;36256;42.154;23.002;2022-10-15T04:54:47;18.03;;;11.10;;
36629;SDS011;36256;42.154;23.002;2022-10-15T04:57:14;20.10;;;12.03;;
36629;SDS011;36256;42.154;23.002;2022-10-15T04:59:41;15.65;;;11.50;;
36629;SDS011;36256;42.154;23.002;2022-10-15T05:02:10;16.80;;;11.77;;
36629;SDS011;36256;42.154;23.002;2022-10-15T05:07:03;16.15;;;11.68;;
36629;SDS011;36256;42.154;23.002;2022-10-15T05:09:29;18.63;;;13.00;;
36629;SDS011;36256;42.154;23.002;2022-10-15T05:11:56;18.87;;;12.60;;
36629;SDS011;36256;42.154;23.002;2022-10-15T05:14:23;18.50;;;12.18;;
36629;SDS011;36256;42.154;23.002;2022-10-15T05:16:49;22.70;;;15.03;;
36629;SDS011;36256;42.154;23.002;2022-10-15T05:19:16;20.05;;;14.65;;
36629;SDS011;36256;42.154;23.002;2022-10-15T05:21:43;18.63;;;13.63;;
36629;SDS011;36256;42.154;23.002;2022-10-15T05:24:10;21.00;;;14.77;;
36629;SDS011;36256;42.154;23.002;2022-10-15T05:26:36;24.90;;;17.30;;
36629;SDS011;36256;42.154;23.002;2022-10-15T05:29:03;25.30;;;17.83;;
36629;SDS011;36256;42.154;23.002;2022-10-15T05:31:30;25.73;;;15.38;;
36629;SDS011;36256;42.154;23.002;2022-10-15T05:33:58;23.02;;;16.65;;
36629;SDS011;36256;42.154;23.002;2022-10-15T05:36:30;22.33;;;15.15;;
36629;SDS011;36256;42.154;23.002;2022-10-15T05:38:58;20.98;;;14.02;;
36629;SDS011;36256;42.154;23.002;2022-10-15T05:41:26;17.83;;;12.18;;
36629;SDS011;36256;42.154;23.002;2022-10-15T05:43:54;21.92;;;12.68;;
36629;SDS011;36256;42.154;23.002;2022-10-15T05:46:22;16.70;;;10.18;;
36629;SDS011;36256;42.154;23.002;2022-10-15T05:48:53;13.05;;;7.50;;
36629;SDS011;36256;42.154;23.002;2022-10-15T05:51:21;9.98;;;6.65;;
36629;SDS011;36256;42.154;23.002;2022-10-15T05:53:52;9.25;;;6.25;;
36629;SDS011;36256;42.154;23.002;2022-10-15T05:56:20;13.77;;;5.97;;
36629;SDS011;36256;42.154;23.002;2022-10-15T05:58:46;15.48;;;6.28;;
36629;SDS011;36256;42.154;23.002;2022-10-15T06:01:13;8.60;;;5.35;;
36629;SDS011;36256;42.154;23.002;2022-10-15T06:03:41;9.60;;;6.00;;
36629;SDS011;36256;42.154;23.002;2022-10-15T06:06:12;9.57;;;6.45;;
36629;SDS011;36256;42.154;23.002;2022-10-15T06:08:57;7.68;;;5.78;;
36629;SDS011;36256;42.154;23.002;2022-10-15T06:11:26;10.13;;;5.40;;
36629;SDS011;36256;42.154;23.002;2022-10-15T06:13:53;8.05;;;5.13;;
36629;SDS011;36256;42.154;23.002;2022-10-15T06:16:20;12.00;;;5.20;;
36629;SDS011;36256;42.154;23.002;2022-10-15T06:18:50;11.45;;;5.00;;
36629;SDS011;36256;42.154;23.002;2022-10-15T06:21:18;7.07;;;4.95;;
36629;SDS011;36256;42.154;23.002;2022-10-15T06:23:45;7.07;;;5.00;;
36629;SDS011;36256;42.154;23.002;2022-10-15T06:26:12;8.77;;;5.53;;
36629;SDS011;36256;42.154;23.002;2022-10-15T06:28:38;8.45;;;4.68;;
36629;SDS011;36256;42.154;23.002;2022-10-15T06:31:05;7.30;;;5.10;;
36629;SDS011;36256;42.154;23.002;2022-10-15T06:36:00;8.13;;;4.22;;
36629;SDS011;36256;42.154;23.002;2022-10-15T06:38:28;6.70;;;4.82;;
36629;SDS011;36256;42.154;23.002;2022-10-15T06:40:55;8.15;;;4.28;;
36629;SDS011;36256;42.154;23.002;2022-10-15T06:43:21;8.65;;;4.68;;
36629;SDS011;36256;42.154;23.002;2022-10-15T06:45:49;8.25;;;5.13;;
36629;SDS011;36256;42.154;23.002;2022-10-15T06:48:16;9.38;;;4.93;;
36629;SDS011;36256;42.154;23.002;2022-10-15T06:50:43;7.10;;;4.85;;
36629;SDS011;36256;42.154;23.002;2022-10-15T06:53:09;7.90;;;4.55;;
36629;SDS011;36256;42.154;23.002;2022-10-15T06:55:36;8.20;;;4.60;;
36629;SDS011;36256;42.154;23.002;2022-10-15T06:58:04;6.90;;;4.57;;
36629;SDS011;36256;42.154;23.002;2022-10-15T07:00:31;9.90;;;4.68;;
36629;SDS011;36256;42.154;23.002;2022-10-15T07:03:02;7.20;;;4.32;;
36629;SDS011;36256;42.154;23.002;2022-10-15T07:05:30;8.60;;;4.43;;
36629;SDS011;36256;42.154;23.002;2022-10-15T07:07:56;6.22;;;4.38;;
36629;SDS011;36256;42.154;23.002;2022-10-15T07:10:24;6.22;;;4.80;;
36629;SDS011;36256;42.154;23.002;2022-10-15T07:12:52;7.13;;;4.55;;
36629;SDS011;36256;42.154;23.002;2022-10-15T07:15:20;8.45;;;4.50;;
36629;SDS011;36256;42.154;23.002;2022-10-15T07:17:51;9.57;;;4.17;;
36629;SDS011;36256;42.154;23.002;2022-10-15T07:20:22;6.95;;;3.90;;
36629;SDS011;36256;42.154;23.002;2022-10-15T07:22:49;7.10;;;4.35;;
36629;SDS011;36256;42.154;23.002;2022-10-15T07:25:21;5.70;;;4.10;;
36629;SDS011;36256;42.154;23.002;2022-10-15T07:27:47;10.20;;;5.40;;
36629;SDS011;36256;42.154;23.002;2022-10-15T07:30:14;9.77;;;4.57;;
36629;SDS011;36256;42.154;23.002;2022-10-15T07:32:40;7.07;;;4.60;;
36629;SDS011;36256;42.154;23.002;2022-10-15T07:35:11;7.70;;;4.53;;
36629;SDS011;36256;42.154;23.002;2022-10-15T07:37:38;11.85;;;8.55;;
36629;SDS011;36256;42.154;23.002;2022-10-15T07:40:05;14.02;;;8.65;;
36629;SDS011;36256;42.154;23.002;2022-10-15T07:44:58;7.25;;;4.60;;
36629;SDS011;36256;42.154;23.002;2022-10-15T07:47:25;8.35;;;4.60;;
36629;SDS011;36256;42.154;23.002;2022-10-15T07:49:52;6.63;;;4.47;;
36629;SDS011;36256;42.154;23.002;2022-10-15T07:52:18;7.60;;;4.83;;
36629;SDS011;36256;42.154;23.002;2022-10-15T07:54:45;6.77;;;4.40;;
36629;SDS011;36256;42.154;23.002;2022-10-15T07:57:11;7.85;;;4.55;;
36629;SDS011;36256;42.154;23.002;2022-10-15T07:59:38;6.38;;;4.07;;
36629;SDS011;36256;42.154;23.002;2022-10-15T08:02:04;10.18;;;4.32;;
36629;SDS011;36256;42.154;23.002;2022-10-15T08:04:32;6.07;;;3.83;;
36629;SDS011;36256;42.154;23.002;2022-10-15T08:07:00;9.80;;;4.30;;
36629;SDS011;36256;42.154;23.002;2022-10-15T08:09:27;4.97;;;4.03;;
36629;SDS011;36256;42.154;23.002;2022-10-15T08:11:53;7.55;;;4.57;;
36629;SDS011;36256;42.154;23.002;2022-10-15T08:14:20;7.63;;;3.80;;
36629;SDS011;36256;42.154;23.002;2022-10-15T08:16:47;6.72;;;4.22;;
36629;SDS011;36256;42.154;23.002;2022-10-15T08:19:14;7.05;;;4.07;;
36629;SDS011;36256;42.154;23.002;2022-10-15T08:21:43;10.73;;;4.32;;
36629;SDS011;36256;42.154;23.002;2022-10-15T08:24:12;6.28;;;4.15;;
36629;SDS011;36256;42.154;23.002;2022-10-15T08:26:39;9.35;;;4.32;;
36629;SDS011;36256;42.154;23.002;2022-10-15T08:29:06;10.00;;;4.38;;
36629;SDS011;36256;42.154;23.002;2022-10-15T08:31:33;5.90;;;3.92;;
36629;SDS011;36256;42.154;23.002;2022-10-15T08:34:00;8.50;;;3.65;;
36629;SDS011;36256;42.154;23.002;2022-10-15T08:36:27;9.02;;;3.90;;
36629;SDS011;36256;42.154;23.002;2022-10-15T08:38:54;6.70;;;3.90;;
36629;SDS011;36256;42.154;23.002;2022-10-15T08:41:23;5.35;;;3.65;;
36629;SDS011;36256;42.154;23.002;2022-10-15T08:43:55;7.32;;;3.47;;
36629;SDS011;36256;42.154;23.002;2022-10-15T08:46:35;7.47;;;3.65;;
36629;SDS011;36256;42.154;23.002;2022-10-15T08:49:05;4.47;;;3.13;;
36629;SDS011;36256;42.154;23.002;2022-10-15T08:51:47;4.63;;;3.45;;
36629;SDS011;36256;42.154;23.002;2022-10-15T08:54:19;6.10;;;3.22;;
36629;SDS011;36256;42.154;23.002;2022-10-15T08:56:47;6.32;;;3.35;;
36629;SDS011;36256;42.154;23.002;2022-10-15T08:59:41;7.07;;;3.50;;
36629;SDS011;36256;42.154;23.002;2022-10-15T09:02:22;6.72;;;3.55;;
36629;SDS011;36256;42.154;23.002;2022-10-15T09:13:12;7.28;;;3.75;;
36629;SDS011;36256;42.154;23.002;2022-10-15T09:15:52;7.35;;;4.03;;
36629;SDS011;36256;42.154;23.002;2022-10-15T09:18:23;8.38;;;3.22;;
36629;SDS011;36256;42.154;23.002;2022-10-15T09:20:52;6.10;;;3.25;;
36629;SDS011;36256;42.154;23.002;2022-10-15T09:31:27;5.57;;;3.75;;
36629;SDS011;36256;42.154;23.002;2022-10-15T09:34:43;8.50;;;4.30;;
36629;SDS011;36256;42.154;23.002;2022-10-15T09:37:12;9.18;;;4.00;;
36629;SDS011;36256;42.154;23.002;2022-10-15T09:40:34;6.05;;;3.53;;
36629;SDS011;36256;42.154;23.002;2022-10-15T09:42:48;7.40;;;3.70;;
36629;SDS011;36256;42.154;23.002;2022-10-15T09:45:17;7.63;;;3.70;;
36629;SDS011;36256;42.154;23.002;2022-10-15T09:47:44;4.65;;;3.38;;
36629;SDS011;36256;42.154;23.002;2022-10-15T09:50:13;6.10;;;3.60;;
36629;SDS011;36256;42.154;23.002;2022-10-15T09:55:17;8.45;;;3.35;;
36629;SDS011;36256;42.154;23.002;2022-10-15T09:57:54;4.05;;;3.33;;
36629;SDS011;36256;42.154;23.002;2022-10-15T10:03:26;10.82;;;4.38;;
36629;SDS011;36256;42.154;23.002;2022-10-15T10:05:58;7.65;;;3.85;;
36629;SDS011;36256;42.154;23.002;2022-10-15T10:08:38;7.38;;;3.95;;
36629;SDS011;36256;42.154;23.002;2022-10-15T10:11:07;6.38;;;3.78;;
36629;SDS011;36256;42.154;23.002;2022-10-15T10:13:39;5.97;;;3.75;;
36629;SDS011;36256;42.154;23.002;2022-10-15T10:16:08;5.63;;;3.83;;
36629;SDS011;36256;42.154;23.002;2022-10-15T10:18:36;6.18;;;3.55;;
36629;SDS011;36256;42.154;23.002;2022-10-15T10:23:34;7.22;;;4.00;;
36629;SDS011;36256;42.154;23.002;2022-10-15T10:26:05;4.75;;;3.13;;
36629;SDS011;36256;42.154;23.002;2022-10-15T10:28:57;7.30;;;3.55;;
36629;SDS011;36256;42.154;23.002;2022-10-15T10:31:40;6.28;;;4.22;;
36629;SDS011;36256;42.154;23.002;2022-10-15T10:34:11;8.70;;;3.63;;
36629;SDS011;36256;42.154;23.002;2022-10-15T10:36:43;6.07;;;3.40;;
36629;SDS011;36256;42.154;23.002;2022-10-15T10:39:25;7.75;;;3.83;;
36629;SDS011;36256;42.154;23.002;2022-10-15T10:42:04;5.40;;;3.30;;
36629;SDS011;36256;42.154;23.002;2022-10-15T10:49:37;6.53;;;3.30;;
36629;SDS011;36256;42.154;23.002;2022-10-15T10:52:17;6.28;;;3.63;;
36629;SDS011;36256;42.154;23.002;2022-10-15T10:54:44;5.93;;;3.55;;
36629;SDS011;36256;42.154;23.002;2022-10-15T10:57:12;6.10;;;3.17;;
36629;SDS011;36256;42.154;23.002;2022-10-15T10:59:48;10.10;;;3.72;;
36629;SDS011;36256;42.154;23.002;2022-10-15T11:02:20;10.85;;;4.30;;
36629;SDS011;36256;42.154;23.002;2022-10-15T11:04:48;7.28;;;3.67;;
36629;SDS011;36256;42.154;23.002;2022-10-15T11:12:57;5.68;;;3.38;;
36629;SDS011;36256;42.154;23.002;2022-10-15T11:26:36;5.47;;;3.45;;
36629;SDS011;36256;42.154;23.002;2022-10-15T11:29:40;6.78;;;3.60;;
36629;SDS011;36256;42.154;23.002;2022-10-15T11:35:35;7.57;;;2.88;;
36629;SDS011;36256;42.154;23.002;2022-10-15T11:48:53;5.25;;;3.35;;
36629;SDS011;36256;42.154;23.002;2022-10-15T11:57:01;7.43;;;3.20;;
36629;SDS011;36256;42.154;23.002;2022-10-15T12:02:34;4.65;;;3.05;;
36629;SDS011;36256;42.154;23.002;2022-10-15T12:05:07;6.10;;;3.20;;
36629;SDS011;36256;42.154;23.002;2022-10-15T12:07:41;7.00;;;3.50;;
36629;SDS011;36256;42.154;23.002;2022-10-15T12:18:44;4.97;;;2.90;;
36629;SDS011;36256;42.154;23.002;2022-10-15T12:21:29;4.18;;;2.97;;
36629;SDS011;36256;42.154;23.002;2022-10-15T12:23:59;3.63;;;2.67;;
36629;SDS011;36256;42.154;23.002;2022-10-15T12:26:28;4.15;;;3.10;;
36629;SDS011;36256;42.154;23.002;2022-10-15T12:29:01;4.85;;;2.90;;
36629;SDS011;36256;42.154;23.002;2022-10-15T12:31:46;2.90;;;2.60;;
36629;SDS011;36256;42.154;23.002;2022-10-15T12:37:12;3.78;;;2.45;;
36629;SDS011;36256;42.154;23.002;2022-10-15T12:39:42;4.20;;;2.45;;
36629;SDS011;36256;42.154;23.002;2022-10-15T12:42:28;4.22;;;2.30;;
36629;SDS011;36256;42.154;23.002;2022-10-15T12:44:59;3.78;;;2.28;;
36629;SDS011;36256;42.154;23.002;2022-10-15T12:47:48;3.40;;;2.72;;
36629;SDS011;36256;42.154;23.002;2022-10-15T12:50:23;4.65;;;2.90;;
36629;SDS011;36256;42.154;23.002;2022-10-15T12:52:59;3.60;;;2.53;;
36629;SDS011;36256;42.154;23.002;2022-10-15T12:55:44;2.70;;;2.03;;
36629;SDS011;36256;42.154;23.002;2022-10-15T13:09:30;4.05;;;2.22;;
36629;SDS011;36256;42.154;23.002;2022-10-15T13:11:48;4.38;;;2.00;;
36629;SDS011;36256;42.154;23.002;2022-10-15T13:14:35;3.17;;;1.95;;
36629;SDS011;36256;42.154;23.002;2022-10-15T13:17:14;3.63;;;2.22;;
36629;SDS011;36256;42.154;23.002;2022-10-15T13:20:00;2.58;;;2.13;;
36629;SDS011;36256;42.154;23.002;2022-10-15T13:22:30;2.83;;;1.73;;
36629;SDS011;36256;42.154;23.002;2022-10-15T13:24:59;2.30;;;1.95;;
36629;SDS011;36256;42.154;23.002;2022-10-15T13:27:31;6.25;;;2.38;;
36629;SDS011;36256;42.154;23.002;2022-10-15T13:32:28;2.28;;;2.08;;
36629;SDS011;36256;42.154;23.002;2022-10-15T13:34:57;2.42;;;1.92;;
36629;SDS011;36256;42.154;23.002;2022-10-15T13:37:28;3.38;;;2.20;;
36629;SDS011;36256;42.154;23.002;2022-10-15T13:39:58;3.92;;;2.13;;
36629;SDS011;36256;42.154;23.002;2022-10-15T13:42:32;3.65;;;1.70;;
36629;SDS011;36256;42.154;23.002;2022-10-15T13:44:59;1.83;;;1.63;;
36629;SDS011;36256;42.154;23.002;2022-10-15T13:50:18;2.92;;;2.00;;
36629;SDS011;36256;42.154;23.002;2022-10-15T13:52:54;2.00;;;1.67;;
36629;SDS011;36256;42.154;23.002;2022-10-15T13:55:25;2.15;;;1.60;;
36629;SDS011;36256;42.154;23.002;2022-10-15T13:58:01;5.78;;;1.67;;
36629;SDS011;36256;42.154;23.002;2022-10-15T14:05:33;2.75;;;1.58;;
36629;SDS011;36256;42.154;23.002;2022-10-15T14:08:00;2.80;;;1.60;;
36629;SDS011;36256;42.154;23.002;2022-10-15T14:10:27;2.05;;;1.50;;
36629;SDS011;36256;42.154;23.002;2022-10-15T14:12:53;1.92;;;1.60;;
36629;SDS011;36256;42.154;23.002;2022-10-15T14:18:14;2.58;;;1.70;;
36629;SDS011;36256;42.154;23.002;2022-10-15T14:20:44;3.05;;;1.73;;
36629;SDS011;36256;42.154;23.002;2022-10-15T14:23:14;5.28;;;2.45;;
36629;SDS011;36256;42.154;23.002;2022-10-15T14:25:59;3.15;;;1.60;;
36629;SDS011;36256;42.154;23.002;2022-10-15T14:28:29;5.47;;;1.70;;
36629;SDS011;36256;42.154;23.002;2022-10-15T14:30:58;5.75;;;1.88;;
36629;SDS011;36256;42.154;23.002;2022-10-15T14:33:30;5.68;;;1.70;;
36629;SDS011;36256;42.154;23.002;2022-10-15T14:36:04;1.90;;;1.70;;
36629;SDS011;36256;42.154;23.002;2022-10-15T14:38:44;5.18;;;2.17;;
36629;SDS011;36256;42.154;23.002;2022-10-15T14:41:21;1.73;;;1.50;;
36629;SDS011;36256;42.154;23.002;2022-10-15T14:44:03;6.78;;;2.92;;
36629;SDS011;36256;42.154;23.002;2022-10-15T14:46:42;4.50;;;2.13;;
36629;SDS011;36256;42.154;23.002;2022-10-15T14:51:54;7.82;;;3.17;;
36629;SDS011;36256;42.154;23.002;2022-10-15T14:54:26;11.88;;;3.22;;
36629;SDS011;36256;42.154;23.002;2022-10-15T14:57:19;2.00;;;1.80;;
36629;SDS011;36256;42.154;23.002;2022-10-15T14:59:52;4.57;;;1.92;;
36629;SDS011;36256;42.154;23.002;2022-10-15T15:02:22;4.38;;;2.17;;
36629;SDS011;36256;42.154;23.002;2022-10-15T15:07:39;55.63;;;14.13;;
36629;SDS011;36256;42.154;23.002;2022-10-15T15:12:33;6.30;;;2.30;;
36629;SDS011;36256;42.154;23.002;2022-10-15T15:17:28;27.55;;;3.08;;
36629;SDS011;36256;42.154;23.002;2022-10-15T15:19:55;3.28;;;1.88;;
36629;SDS011;36256;42.154;23.002;2022-10-15T15:22:27;3.17;;;1.60;;
36629;SDS011;36256;42.154;23.002;2022-10-15T15:24:59;3.45;;;1.80;;
36629;SDS011;36256;42.154;23.002;2022-10-15T15:27:29;3.30;;;1.73;;
36629;SDS011;36256;42.154;23.002;2022-10-15T15:30:05;1.63;;;1.40;;
36629;SDS011;36256;42.154;23.002;2022-10-15T15:32:33;2.80;;;2.00;;
36629;SDS011;36256;42.154;23.002;2022-10-15T15:35:00;3.42;;;1.70;;
36629;SDS011;36256;42.154;23.002;2022-10-15T15:37:27;2.60;;;1.70;;
36629;SDS011;36256;42.154;23.002;2022-10-15T15:39:55;2.35;;;1.88;;
36629;SDS011;36256;42.154;23.002;2022-10-15T15:42:22;2.40;;;1.92;;
36629;SDS011;36256;42.154;23.002;2022-10-15T15:44:51;3.05;;;1.90;;
36629;SDS011;36256;42.154;23.002;2022-10-15T15:47:20;3.17;;;1.70;;
36629;SDS011;36256;42.154;23.002;2022-10-15T15:49:47;4.38;;;2.00;;
36629;SDS011;36256;42.154;23.002;2022-10-15T15:52:13;3.20;;;2.07;;
36629;SDS011;36256;42.154;23.002;2022-10-15T15:54:42;3.63;;;1.80;;
36629;SDS011;36256;42.154;23.002;2022-10-15T15:57:08;2.83;;;1.90;;
36629;SDS011;36256;42.154;23.002;2022-10-15T15:59:35;2.83;;;1.90;;
36629;SDS011;36256;42.154;23.002;2022-10-15T16:02:02;3.05;;;1.85;;
36629;SDS011;36256;42.154;23.002;2022-10-15T16:04:29;4.18;;;2.03;;
36629;SDS011;36256;42.154;23.002;2022-10-15T16:06:55;7.80;;;2.33;;
36629;SDS011;36256;42.154;23.002;2022-10-15T16:09:22;2.70;;;2.05;;
36629;SDS011;36256;42.154;23.002;2022-10-15T16:11:52;2.72;;;2.17;;
36629;SDS011;36256;42.154;23.002;2022-10-15T16:14:18;3.47;;;2.53;;
36629;SDS011;36256;42.154;23.002;2022-10-15T16:16:45;6.63;;;3.53;;
36629;SDS011;36256;42.154;23.002;2022-10-15T16:19:12;2.97;;;2.42;;
36629;SDS011;36256;42.154;23.002;2022-10-15T16:21:39;3.50;;;2.72;;
36629;SDS011;36256;42.154;23.002;2022-10-15T16:24:06;7.25;;;3.17;;
36629;SDS011;36256;42.154;23.002;2022-10-15T16:26:33;4.75;;;2.85;;
36629;SDS011;36256;42.154;23.002;2022-10-15T16:28:59;5.35;;;2.92;;
36629;SDS011;36256;42.154;23.002;2022-10-15T16:31:26;3.25;;;2.85;;
36629;SDS011;36256;42.154;23.002;2022-10-15T16:33:58;4.00;;;2.67;;
36629;SDS011;36256;42.154;23.002;2022-10-15T16:36:25;4.37;;;3.03;;
36629;SDS011;36256;42.154;23.002;2022-10-15T16:38:51;4.53;;;3.20;;
36629;SDS011;36256;42.154;23.002;2022-10-15T16:41:19;7.35;;;3.42;;
36629;SDS011;36256;42.154;23.002;2022-10-15T16:43:46;5.25;;;2.90;;
36629;SDS011;36256;42.154;23.002;2022-10-15T16:46:13;5.25;;;2.60;;
36629;SDS011;36256;42.154;23.002;2022-10-15T16:48:41;6.22;;;3.00;;
36629;SDS011;36256;42.154;23.002;2022-10-15T16:51:08;5.63;;;3.50;;
36629;SDS011;36256;42.154;23.002;2022-10-15T16:53:39;4.25;;;2.50;;
36629;SDS011;36256;42.154;23.002;2022-10-15T16:56:08;5.97;;;2.78;;
36629;SDS011;36256;42.154;23.002;2022-10-15T16:58:42;3.58;;;2.53;;
36629;SDS011;36256;42.154;23.002;2022-10-15T17:01:12;7.47;;;2.63;;
36629;SDS011;36256;42.154;23.002;2022-10-15T17:03:41;6.95;;;2.85;;
36629;SDS011;36256;42.154;23.002;2022-10-15T17:06:10;3.90;;;2.92;;
36629;SDS011;36256;42.154;23.002;2022-10-15T17:08:54;6.07;;;2.90;;
36629;SDS011;36256;42.154;23.002;2022-10-15T17:11:28;5.53;;;2.83;;
36629;SDS011;36256;42.154;23.002;2022-10-15T17:13:58;4.57;;;2.60;;
36629;SDS011;36256;42.154;23.002;2022-10-15T17:16:28;5.97;;;2.72;;
36629;SDS011;36256;42.154;23.002;2022-10-15T17:18:56;4.75;;;2.88;;